sensor_id;sensor_type;location;lat;lon;timestamp;pressure;altitude;pressure_sealevel;temperature;humidity
32761;BME280;19126;47.472;7.850;2023-05-09T00:01:06;96920.69;;;11.94;12.59
32761;BME280;19126;47.472;7.850;2023-05-09T00:03:33;96918.41;;;11.91;12.49
32761;BME280;19126;47.472;7.850;2023-05-09T00:06:00;96912.00;;;11.93;12.31
32761;BME280;19126;47.472;7.850;2023-05-09T00:08:28;96910.53;;;11.91;12.32
32761;BME280;19126;47.472;7.850;2023-05-09T00:10:55;96910.53;;;11.91;12.69
32761;BME280;19126;47.472;7.850;2023-05-09T00:13:23;96915.94;;;11.89;12.33
32761;BME280;19126;47.472;7.850;2023-05-09T00:15:52;96904.41;;;11.90;12.04
32761;BME280;19126;47.472;7.850;2023-05-09T00:18:19;96910.53;;;11.91;12.06
32761;BME280;19126;47.472;7.850;2023-05-09T00:20:47;96904.25;;;11.92;11.98
32761;BME280;19126;47.472;7.850;2023-05-09T00:23:14;96898.00;;;11.93;12.26
32761;BME280;19126;47.472;7.850;2023-05-09T00:25:41;96894.53;;;11.92;12.04
32761;BME280;19126;47.472;7.850;2023-05-09T00:28:09;96886.63;;;12.00;11.52
32761;BME280;19126;47.472;7.850;2023-05-09T00:30:36;96882.03;;;11.94;11.98
32761;BME280;19126;47.472;7.850;2023-05-09T00:33:05;96885.19;;;11.90;12.60
32761;BME280;19126;47.472;7.850;2023-05-09T00:35:32;96876.66;;;11.87;12.43
32761;BME280;19126;47.472;7.850;2023-05-09T00:37:59;96881.38;;;11.92;11.90
32761;BME280;19126;47.472;7.850;2023-05-09T00:40:27;96873.03;;;11.88;12.37
32761;BME280;19126;47.472;7.850;2023-05-09T00:42:54;96868.56;;;11.89;12.09
32761;BME280;19126;47.472;7.850;2023-05-09T00:45:23;96862.66;;;11.87;11.96
32761;BME280;19126;47.472;7.850;2023-05-09T00:47:51;96869.75;;;11.86;12.08
32761;BME280;19126;47.472;7.850;2023-05-09T00:50:20;96863.94;;;11.91;11.91
32761;BME280;19126;47.472;7.850;2023-05-09T00:52:47;96863.66;;;11.86;12.03
32761;BME280;19126;47.472;7.850;2023-05-09T00:55:15;96868.47;;;11.82;12.35
32761;BME280;19126;47.472;7.850;2023-05-09T00:57:43;96866.28;;;11.86;12.55
32761;BME280;19126;47.472;7.850;2023-05-09T01:00:12;96855.41;;;11.89;12.67
32761;BME280;19126;47.472;7.850;2023-05-09T01:02:41;96851.19;;;11.80;12.81
32761;BME280;19126;47.472;7.850;2023-05-09T01:05:09;96853.38;;;11.76;11.90
32761;BME280;19126;47.472;7.850;2023-05-09T01:20:41;96841.72;;;11.70;11.89
32761;BME280;19126;47.472;7.850;2023-05-09T01:23:48;96847.34;;;11.67;12.06
32761;BME280;19126;47.472;7.850;2023-05-09T01:26:27;96840.28;;;11.68;11.80
32761;BME280;19126;47.472;7.850;2023-05-09T01:29:40;96834.38;;;11.66;11.93
32761;BME280;19126;47.472;7.850;2023-05-09T01:32:12;96830.09;;;11.65;12.14
32761;BME280;19126;47.472;7.850;2023-05-09T01:34:43;96828.28;;;11.65;11.72
32761;BME280;19126;47.472;7.850;2023-05-09T01:37:13;96831.91;;;11.64;12.08
32761;BME280;19126;47.472;7.850;2023-05-09T01:39:46;96831.75;;;11.66;12.11
32761;BME280;19126;47.472;7.850;2023-05-09T01:42:16;96831.75;;;11.66;12.41
32761;BME280;19126;47.472;7.850;2023-05-09T01:44:46;96830.09;;;11.65;12.05
32761;BME280;19126;47.472;7.850;2023-05-09T01:47:16;96829.09;;;11.66;11.93
32761;BME280;19126;47.472;7.850;2023-05-09T01:49:45;96831.75;;;11.66;12.26
32761;BME280;19126;47.472;7.850;2023-05-09T01:52:16;96829.09;;;11.66;11.57
32761;BME280;19126;47.472;7.850;2023-05-09T01:54:45;96822.38;;;11.63;12.27
32761;BME280;19126;47.472;7.850;2023-05-09T01:57:14;96824.00;;;11.64;12.08
32761;BME280;19126;47.472;7.850;2023-05-09T01:59:45;96817.94;;;11.64;11.80
32761;BME280;19126;47.472;7.850;2023-05-09T02:02:14;96818.09;;;11.62;12.46
32761;BME280;19126;47.472;7.850;2023-05-09T02:04:42;96821.38;;;11.64;12.08
32761;BME280;19126;47.472;7.850;2023-05-09T02:07:11;96817.94;;;11.64;11.92
32761;BME280;19126;47.472;7.850;2023-05-09T02:09:39;96819.59;;;11.65;12.22
32761;BME280;19126;47.472;7.850;2023-05-09T02:12:06;96809.69;;;11.67;12.04
32761;BME280;19126;47.472;7.850;2023-05-09T02:14:34;96804.88;;;11.70;12.02
32761;BME280;19126;47.472;7.850;2023-05-09T02:17:03;96803.09;;;11.71;12.19
32761;BME280;19126;47.472;7.850;2023-05-09T02:19:33;96804.38;;;11.75;12.41
32761;BME280;19126;47.472;7.850;2023-05-09T02:22:01;96802.81;;;11.81;12.34
32761;BME280;19126;47.472;7.850;2023-05-09T02:24:31;96799.09;;;11.75;12.18
32761;BME280;19126;47.472;7.850;2023-05-09T02:27:03;96798.63;;;11.71;12.71
32761;BME280;19126;47.472;7.850;2023-05-09T02:29:39;96801.31;;;11.63;12.07
32761;BME280;19126;47.472;7.850;2023-05-09T02:32:14;96793.97;;;11.58;11.84
32761;BME280;19126;47.472;7.850;2023-05-09T02:34:42;96799.22;;;11.58;12.61
32761;BME280;19126;47.472;7.850;2023-05-09T02:37:09;96800.88;;;11.60;12.63
32761;BME280;19126;47.472;7.850;2023-05-09T02:39:37;96795.78;;;11.58;12.24
32761;BME280;19126;47.472;7.850;2023-05-09T02:42:10;96800.22;;;11.57;12.02
32761;BME280;19126;47.472;7.850;2023-05-09T02:44:38;96795.13;;;11.56;12.23
32761;BME280;19126;47.472;7.850;2023-05-09T02:47:06;96795.81;;;11.50;12.12
32761;BME280;19126;47.472;7.850;2023-05-09T02:49:35;96801.38;;;11.55;12.38
32761;BME280;19126;47.472;7.850;2023-05-09T02:52:02;96806.00;;;11.53;11.91
32761;BME280;19126;47.472;7.850;2023-05-09T02:54:30;96802.63;;;11.44;12.28
32761;BME280;19126;47.472;7.850;2023-05-09T02:56:57;96801.69;;;11.37;12.36
32761;BME280;19126;47.472;7.850;2023-05-09T02:59:25;96793.91;;;11.43;12.62
32761;BME280;19126;47.472;7.850;2023-05-09T03:04:28;96787.41;;;11.31;12.42
32761;BME280;19126;47.472;7.850;2023-05-09T03:06:57;96794.66;;;11.29;12.73
32761;BME280;19126;47.472;7.850;2023-05-09T03:09:24;96794.50;;;11.31;12.33
32761;BME280;19126;47.472;7.850;2023-05-09T03:11:51;96784.63;;;11.33;12.30
32761;BME280;19126;47.472;7.850;2023-05-09T03:14:19;96789.88;;;11.33;12.11
32761;BME280;19126;47.472;7.850;2023-05-09T03:16:47;96783.78;;;11.32;12.36
32761;BME280;19126;47.472;7.850;2023-05-09T03:19:14;96775.91;;;11.32;12.27
32761;BME280;19126;47.472;7.850;2023-05-09T03:21:42;96788.25;;;11.32;12.29
32761;BME280;19126;47.472;7.850;2023-05-09T03:24:11;96784.97;;;11.29;11.72
32761;BME280;19126;47.472;7.850;2023-05-09T03:26:40;96783.97;;;11.31;12.29
32761;BME280;19126;47.472;7.850;2023-05-09T03:32:23;96781.16;;;11.32;12.15
32761;BME280;19126;47.472;7.850;2023-05-09T03:40:04;96774.91;;;11.33;12.19
32761;BME280;19126;47.472;7.850;2023-05-09T03:45:09;96768.66;;;11.34;11.93
32761;BME280;19126;47.472;7.850;2023-05-09T03:50:12;96766.22;;;11.33;12.07
32761;BME280;19126;47.472;7.850;2023-05-09T03:55:16;96767.00;;;11.33;12.03
32761;BME280;19126;47.472;7.850;2023-05-09T03:57:44;96767.84;;;11.34;12.42
32761;BME280;19126;47.472;7.850;2023-05-09T04:00:12;96777.81;;;11.38;11.87
32761;BME280;19126;47.472;7.850;2023-05-09T04:02:39;96778.38;;;11.34;12.06
32761;BME280;19126;47.472;7.850;2023-05-09T04:05:07;96769.88;;;11.23;12.22
32761;BME280;19126;47.472;7.850;2023-05-09T04:07:35;96774.97;;;11.25;12.24
32761;BME280;19126;47.472;7.850;2023-05-09T04:10:02;96777.66;;;11.17;12.32
32761;BME280;19126;47.472;7.850;2023-05-09T04:12:32;96777.66;;;11.17;11.85
32761;BME280;19126;47.472;7.850;2023-05-09T04:14:59;96776.19;;;11.14;12.35
32761;BME280;19126;47.472;7.850;2023-05-09T04:17:26;96783.53;;;11.19;12.41
32761;BME280;19126;47.472;7.850;2023-05-09T04:19:54;96788.34;;;11.15;12.17
32761;BME280;19126;47.472;7.850;2023-05-09T04:24:57;96771.56;;;11.16;12.06
32761;BME280;19126;47.472;7.850;2023-05-09T04:27:24;96769.59;;;11.18;12.26
32761;BME280;19126;47.472;7.850;2023-05-09T04:29:54;96769.25;;;11.21;11.84
32761;BME280;19126;47.472;7.850;2023-05-09T04:50:31;96754.28;;;11.45;11.99
32761;BME280;19126;47.472;7.850;2023-05-09T05:01:56;96759.22;;;11.63;12.07
32761;BME280;19126;47.472;7.850;2023-05-09T05:04:24;96759.50;;;11.68;12.30
32761;BME280;19126;47.472;7.850;2023-05-09T05:06:53;96749.25;;;11.73;12.38
32761;BME280;19126;47.472;7.850;2023-05-09T06:49:32;96693.03;;;14.50;63.74
32761;BME280;19126;47.472;7.850;2023-05-09T06:51:59;96694.25;;;14.55;70.04
32761;BME280;19126;47.472;7.850;2023-05-09T06:57:02;96682.81;;;14.89;77.17
32761;BME280;19126;47.472;7.850;2023-05-09T07:38:36;96649.38;;;17.58;100.00
32761;BME280;19126;47.472;7.850;2023-05-09T10:01:17;96461.78;;;21.06;68.97
32761;BME280;19126;47.472;7.850;2023-05-09T10:42:09;96384.63;;;20.70;68.84
32761;BME280;19126;47.472;7.850;2023-05-09T10:44:38;96377.63;;;21.03;72.64
32761;BME280;19126;47.472;7.850;2023-05-09T10:47:06;96378.44;;;21.26;70.20
32761;BME280;19126;47.472;7.850;2023-05-09T10:49:34;96372.22;;;21.43;66.42
32761;BME280;19126;47.472;7.850;2023-05-09T10:52:01;96372.41;;;21.58;69.57
32761;BME280;19126;47.472;7.850;2023-05-09T10:54:29;96360.16;;;21.62;69.76
32761;BME280;19126;47.472;7.850;2023-05-09T10:56:58;96365.94;;;21.54;66.94
32761;BME280;19126;47.472;7.850;2023-05-09T10:59:35;96357.06;;;21.48;69.38
32761;BME280;19126;47.472;7.850;2023-05-09T11:02:03;96347.44;;;21.47;67.34
32761;BME280;19126;47.472;7.850;2023-05-09T11:04:32;96343.56;;;21.60;70.34
32761;BME280;19126;47.472;7.850;2023-05-09T11:06:59;96337.97;;;21.89;68.99
32761;BME280;19126;47.472;7.850;2023-05-09T11:09:32;96336.72;;;21.70;63.97
32761;BME280;19126;47.472;7.850;2023-05-09T11:12:08;96328.47;;;21.71;69.06
32761;BME280;19126;47.472;7.850;2023-05-09T11:14:42;96317.72;;;21.66;67.74
32761;BME280;19126;47.472;7.850;2023-05-09T11:17:11;96315.69;;;21.78;67.63
32761;BME280;19126;47.472;7.850;2023-05-09T11:20:03;96308.78;;;21.83;73.53
32761;BME280;19126;47.472;7.850;2023-05-09T11:22:37;96299.88;;;22.04;74.94
32761;BME280;19126;47.472;7.850;2023-05-09T11:25:08;96306.44;;;22.24;67.53
32761;BME280;19126;47.472;7.850;2023-05-09T11:27:41;96304.41;;;22.42;71.06
32761;BME280;19126;47.472;7.850;2023-05-09T11:30:42;96295.44;;;22.58;68.05
32761;BME280;19126;47.472;7.850;2023-05-09T11:38:45;96279.22;;;22.80;66.93
32761;BME280;19126;47.472;7.850;2023-05-09T11:41:18;96277.22;;;22.55;64.84
32761;BME280;19126;47.472;7.850;2023-05-09T11:43:46;96273.69;;;22.49;62.34
32761;BME280;19126;47.472;7.850;2023-05-09T11:46:16;96271.97;;;22.38;64.41
32761;BME280;19126;47.472;7.850;2023-05-09T11:48:44;96263.25;;;22.48;67.62
32761;BME280;19126;47.472;7.850;2023-05-09T11:51:16;96255.75;;;22.45;65.06
32761;BME280;19126;47.472;7.850;2023-05-09T11:53:44;96252.03;;;22.51;65.84
32761;BME280;19126;47.472;7.850;2023-05-09T11:56:13;96242.41;;;22.55;63.91
32761;BME280;19126;47.472;7.850;2023-05-09T11:58:40;96246.19;;;22.59;67.05
32761;BME280;19126;47.472;7.850;2023-05-09T12:01:10;96244.16;;;22.39;65.34
32761;BME280;19126;47.472;7.850;2023-05-09T12:03:43;96239.69;;;22.45;65.58
32761;BME280;19126;47.472;7.850;2023-05-09T12:06:14;96239.63;;;22.39;63.92
32761;BME280;19126;47.472;7.850;2023-05-09T12:08:43;96234.91;;;22.52;67.66
32761;BME280;19126;47.472;7.850;2023-05-09T12:11:12;96241.44;;;22.77;66.32
32761;BME280;19126;47.472;7.850;2023-05-09T12:13:47;96233.66;;;22.75;64.38
32761;BME280;19126;47.472;7.850;2023-05-09T12:16:17;96225.28;;;22.56;65.59
32761;BME280;19126;47.472;7.850;2023-05-09T12:18:47;96226.16;;;22.72;67.69
32761;BME280;19126;47.472;7.850;2023-05-09T12:21:15;96226.31;;;22.50;64.99
32761;BME280;19126;47.472;7.850;2023-05-09T12:23:43;96214.47;;;22.40;66.67
32761;BME280;19126;47.472;7.850;2023-05-09T12:26:11;96208.31;;;22.40;64.83
32761;BME280;19126;47.472;7.850;2023-05-09T12:28:40;96207.56;;;22.45;66.06
32761;BME280;19126;47.472;7.850;2023-05-09T12:31:07;96202.78;;;22.52;67.83
32761;BME280;19126;47.472;7.850;2023-05-09T12:33:37;96208.78;;;22.80;66.05
32761;BME280;19126;47.472;7.850;2023-05-09T12:36:09;96192.69;;;22.75;65.61
32761;BME280;19126;47.472;7.850;2023-05-09T12:38:38;96195.59;;;22.63;64.42
32761;BME280;19126;47.472;7.850;2023-05-09T12:41:07;96194.44;;;22.48;64.44
32761;BME280;19126;47.472;7.850;2023-05-09T12:43:37;96192.75;;;22.37;66.71
32761;BME280;19126;47.472;7.850;2023-05-09T12:46:05;96201.56;;;22.27;65.06
32761;BME280;19126;47.472;7.850;2023-05-09T12:48:36;96196.28;;;21.94;64.51
32761;BME280;19126;47.472;7.850;2023-05-09T12:51:06;96186.34;;;21.85;67.32
32761;BME280;19126;47.472;7.850;2023-05-09T12:53:37;96182.28;;;21.82;67.30
32761;BME280;19126;47.472;7.850;2023-05-09T12:56:14;96185.81;;;21.88;68.74
32761;BME280;19126;47.472;7.850;2023-05-09T12:58:47;96182.88;;;21.89;68.70
32761;BME280;19126;47.472;7.850;2023-05-09T13:01:16;96179.59;;;21.77;66.00
32761;BME280;19126;47.472;7.850;2023-05-09T13:03:43;96176.78;;;21.61;65.43
32761;BME280;19126;47.472;7.850;2023-05-09T13:06:13;96165.47;;;21.49;70.18
32761;BME280;19126;47.472;7.850;2023-05-09T13:08:40;96170.22;;;21.42;70.54
32761;BME280;19126;47.472;7.850;2023-05-09T13:11:09;96169.88;;;21.33;66.98
32761;BME280;19126;47.472;7.850;2023-05-09T13:13:38;96160.97;;;21.22;67.84
32761;BME280;19126;47.472;7.850;2023-05-09T13:16:06;96149.28;;;21.01;68.14
32761;BME280;19126;47.472;7.850;2023-05-09T13:18:33;96148.50;;;21.00;70.84
32761;BME280;19126;47.472;7.850;2023-05-09T13:21:00;96149.59;;;21.04;68.95
32761;BME280;19126;47.472;7.850;2023-05-09T13:23:29;96149.03;;;21.02;70.99
32761;BME280;19126;47.472;7.850;2023-05-09T13:25:57;96149.88;;;21.08;71.44
32761;BME280;19126;47.472;7.850;2023-05-09T13:28:24;96139.66;;;21.00;72.27
32761;BME280;19126;47.472;7.850;2023-05-09T13:30:51;96142.66;;;21.03;71.76
32761;BME280;19126;47.472;7.850;2023-05-09T13:33:19;96138.03;;;20.99;72.73
32761;BME280;19126;47.472;7.850;2023-05-09T13:35:49;96127.28;;;20.88;71.34
32761;BME280;19126;47.472;7.850;2023-05-09T13:50:25;96118.03;;;20.74;71.71
32761;BME280;19126;47.472;7.850;2023-05-09T13:52:58;96120.91;;;20.67;71.72
32761;BME280;19126;47.472;7.850;2023-05-09T13:55:30;96132.69;;;20.71;76.47
32761;BME280;19126;47.472;7.850;2023-05-09T13:58:15;96128.88;;;20.62;77.18
32761;BME280;19126;47.472;7.850;2023-05-09T14:00:44;96130.03;;;20.49;76.88
32761;BME280;19126;47.472;7.850;2023-05-09T14:03:11;96130.44;;;20.35;80.19
32761;BME280;19126;47.472;7.850;2023-05-09T14:05:39;96124.69;;;20.22;84.39
32761;BME280;19126;47.472;7.850;2023-05-09T14:08:07;96122.31;;;20.03;82.37
32761;BME280;19126;47.472;7.850;2023-05-09T14:10:34;96126.19;;;19.95;84.81
32761;BME280;19126;47.472;7.850;2023-05-09T14:13:02;96125.78;;;20.03;88.25
32761;BME280;19126;47.472;7.850;2023-05-09T14:15:29;96123.22;;;19.91;87.99
32761;BME280;19126;47.472;7.850;2023-05-09T14:17:56;96126.19;;;19.78;85.29
32761;BME280;19126;47.472;7.850;2023-05-09T14:20:24;96129.75;;;19.67;86.02
32761;BME280;19126;47.472;7.850;2023-05-09T14:22:52;96132.03;;;19.58;90.15
32761;BME280;19126;47.472;7.850;2023-05-09T14:25:24;96136.56;;;19.40;90.93
32761;BME280;19126;47.472;7.850;2023-05-09T14:27:52;96130.53;;;19.28;94.85
32761;BME280;19126;47.472;7.850;2023-05-09T14:30:20;96122.94;;;19.20;92.93
32761;BME280;19126;47.472;7.850;2023-05-09T14:32:47;96125.19;;;19.11;95.51
32761;BME280;19126;47.472;7.850;2023-05-09T14:35:14;96121.44;;;18.95;94.24
32761;BME280;19126;47.472;7.850;2023-05-09T14:37:42;96133.34;;;18.92;97.70
32761;BME280;19126;47.472;7.850;2023-05-09T14:40:11;96127.94;;;18.87;100.00
32761;BME280;19126;47.472;7.850;2023-05-09T14:42:39;96121.19;;;18.79;100.00
32761;BME280;19126;47.472;7.850;2023-05-09T14:45:08;96123.25;;;18.77;100.00
32761;BME280;19126;47.472;7.850;2023-05-09T14:47:48;96121.56;;;18.71;100.00
32761;BME280;19126;47.472;7.850;2023-05-09T14:50:20;96119.13;;;18.69;100.00
32761;BME280;19126;47.472;7.850;2023-05-09T14:52:56;96118.25;;;18.64;100.00
32761;BME280;19126;47.472;7.850;2023-05-09T14:55:37;96111.88;;;18.65;87.42
32761;BME280;19126;47.472;7.850;2023-05-09T14:58:09;96118.94;;;18.59;89.15
32761;BME280;19126;47.472;7.850;2023-05-09T15:00:38;96114.84;;;18.39;91.99
32761;BME280;19126;47.472;7.850;2023-05-09T15:03:06;96113.69;;;18.35;97.83
32761;BME280;19126;47.472;7.850;2023-05-09T15:05:33;96117.53;;;18.27;95.78
32761;BME280;19126;47.472;7.850;2023-05-09T15:08:02;96114.28;;;18.25;94.36
32761;BME280;19126;47.472;7.850;2023-05-09T15:10:29;96122.88;;;18.15;90.92
32761;BME280;19126;47.472;7.850;2023-05-09T15:13:00;96120.94;;;17.99;97.01
32761;BME280;19126;47.472;7.850;2023-05-09T15:15:29;96119.53;;;17.96;92.67
32761;BME280;19126;47.472;7.850;2023-05-09T15:17:57;96115.75;;;17.80;93.77
32761;BME280;19126;47.472;7.850;2023-05-09T15:20:26;96122.34;;;17.78;98.53
32761;BME280;19126;47.472;7.850;2023-05-09T15:22:53;96119.69;;;17.78;100.00
32761;BME280;19126;47.472;7.850;2023-05-09T15:25:21;96117.47;;;17.75;98.99
32761;BME280;19126;47.472;7.850;2023-05-09T15:27:51;96115.66;;;17.75;97.96
32761;BME280;19126;47.472;7.850;2023-05-09T15:30:21;96121.19;;;17.62;99.76
32761;BME280;19126;47.472;7.850;2023-05-09T15:32:48;96120.25;;;17.56;98.75
32761;BME280;19126;47.472;7.850;2023-05-09T15:35:16;96123.38;;;17.53;100.00
32761;BME280;19126;47.472;7.850;2023-05-09T15:37:43;96117.03;;;17.42;100.00
32761;BME280;19126;47.472;7.850;2023-05-09T15:40:11;96114.16;;;17.32;100.00
32761;BME280;19126;47.472;7.850;2023-05-09T15:42:39;96123.72;;;17.33;100.00
32761;BME280;19126;47.472;7.850;2023-05-09T15:45:07;96127.88;;;17.28;100.00
32761;BME280;19126;47.472;7.850;2023-05-09T15:47:36;96127.31;;;17.26;100.00
32761;BME280;19126;47.472;7.850;2023-05-09T15:50:05;96123.69;;;17.21;100.00
32761;BME280;19126;47.472;7.850;2023-05-09T15:52:33;96129.22;;;17.19;100.00
32761;BME280;19126;47.472;7.850;2023-05-09T15:55:00;96132.13;;;17.18;100.00
32761;BME280;19126;47.472;7.850;2023-05-09T15:57:28;96128.06;;;17.03;100.00
32761;BME280;19126;47.472;7.850;2023-05-09T15:59:55;96133.22;;;16.98;100.00
32761;BME280;19126;47.472;7.850;2023-05-09T16:02:22;96143.56;;;16.88;100.00
32761;BME280;19126;47.472;7.850;2023-05-09T16:04:51;96128.53;;;16.81;100.00
32761;BME280;19126;47.472;7.850;2023-05-09T16:07:18;96127.91;;;16.67;100.00
32761;BME280;19126;47.472;7.850;2023-05-09T16:09:46;96123.88;;;16.65;100.00
32761;BME280;19126;47.472;7.850;2023-05-09T16:12:13;96131.31;;;16.56;100.00
32761;BME280;19126;47.472;7.850;2023-05-09T16:14:40;96136.03;;;16.54;100.00
32761;BME280;19126;47.472;7.850;2023-05-09T16:17:07;96131.75;;;16.41;100.00
32761;BME280;19126;47.472;7.850;2023-05-09T16:19:35;96127.97;;;16.30;100.00
32761;BME280;19126;47.472;7.850;2023-05-09T16:22:03;96123.56;;;16.24;100.00
32761;BME280;19126;47.472;7.850;2023-05-09T16:24:31;96120.34;;;16.22;100.00
32761;BME280;19126;47.472;7.850;2023-05-09T16:26:58;96118.13;;;16.19;96.23
32761;BME280;19126;47.472;7.850;2023-05-09T16:29:25;96109.53;;;16.05;95.45
32761;BME280;19126;47.472;7.850;2023-05-09T16:31:53;96123.22;;;16.02;92.70
32761;BME280;19126;47.472;7.850;2023-05-09T16:34:20;96120.88;;;15.93;90.25
32761;BME280;19126;47.472;7.850;2023-05-09T16:36:47;96117.03;;;15.89;88.52
32761;BME280;19126;47.472;7.850;2023-05-09T16:39:16;96112.81;;;15.81;86.82
32761;BME280;19126;47.472;7.850;2023-05-09T16:41:43;96105.50;;;15.77;87.60
32761;BME280;19126;47.472;7.850;2023-05-09T16:44:11;96111.47;;;15.72;89.48
32761;BME280;19126;47.472;7.850;2023-05-09T16:46:40;96106.19;;;15.72;87.63
32761;BME280;19126;47.472;7.850;2023-05-09T16:49:07;96104.72;;;15.76;86.31
32761;BME280;19126;47.472;7.850;2023-05-09T16:51:34;96094.63;;;15.66;89.51
32761;BME280;19126;47.472;7.850;2023-05-09T16:54:02;96095.72;;;15.59;93.61
32761;BME280;19126;47.472;7.850;2023-05-09T16:56:31;96104.00;;;15.44;96.33
32761;BME280;19126;47.472;7.850;2023-05-09T16:58:58;96111.19;;;15.36;95.33
32761;BME280;19126;47.472;7.850;2023-05-09T17:01:26;96104.06;;;15.37;91.25
32761;BME280;19126;47.472;7.850;2023-05-09T17:03:53;96112.13;;;15.23;90.86
32761;BME280;19126;47.472;7.850;2023-05-09T17:06:21;96111.53;;;15.21;89.10
32761;BME280;19126;47.472;7.850;2023-05-09T17:08:48;96104.13;;;15.05;86.72
32761;BME280;19126;47.472;7.850;2023-05-09T17:11:21;96104.75;;;15.00;84.36
32761;BME280;19126;47.472;7.850;2023-05-09T17:13:50;96094.84;;;14.96;82.86
32761;BME280;19126;47.472;7.850;2023-05-09T17:16:17;96110.06;;;15.00;80.11
32761;BME280;19126;47.472;7.850;2023-05-09T17:18:45;96103.81;;;14.94;81.59
32761;BME280;19126;47.472;7.850;2023-05-09T17:21:13;96097.66;;;15.01;80.89
32761;BME280;19126;47.472;7.850;2023-05-09T17:23:41;96087.28;;;14.99;78.95
32761;BME280;19126;47.472;7.850;2023-05-09T17:26:08;96095.72;;;14.89;77.04
32761;BME280;19126;47.472;7.850;2023-05-09T17:28:36;96082.47;;;14.89;73.91
32761;BME280;19126;47.472;7.850;2023-05-09T17:31:04;96095.53;;;14.84;74.48
32761;BME280;19126;47.472;7.850;2023-05-09T17:33:32;96082.16;;;14.79;75.89
32761;BME280;19126;47.472;7.850;2023-05-09T17:35:59;96081.31;;;14.78;75.86
32761;BME280;19126;47.472;7.850;2023-05-09T17:38:27;96090.34;;;14.71;76.85
32761;BME280;19126;47.472;7.850;2023-05-09T17:40:54;96080.78;;;14.63;76.93
32761;BME280;19126;47.472;7.850;2023-05-09T17:43:22;96073.91;;;14.55;77.47
32761;BME280;19126;47.472;7.850;2023-05-09T17:45:49;96066.03;;;14.48;75.40
32761;BME280;19126;47.472;7.850;2023-05-09T17:48:19;96068.88;;;14.47;71.69
32761;BME280;19126;47.472;7.850;2023-05-09T17:50:46;96072.13;;;14.49;69.65
32761;BME280;19126;47.472;7.850;2023-05-09T17:53:14;96066.22;;;14.47;66.66
32761;BME280;19126;47.472;7.850;2023-05-09T17:55:41;96055.63;;;14.54;67.91
32761;BME280;19126;47.472;7.850;2023-05-09T17:58:09;96077.22;;;14.44;68.83
32761;BME280;19126;47.472;7.850;2023-05-09T18:00:36;96078.47;;;14.41;68.53
32761;BME280;19126;47.472;7.850;2023-05-09T18:03:04;96074.00;;;14.42;66.01
32761;BME280;19126;47.472;7.850;2023-05-09T18:05:33;96084.56;;;14.42;64.20
32761;BME280;19126;47.472;7.850;2023-05-09T18:08:00;96084.97;;;14.39;61.72
32761;BME280;19126;47.472;7.850;2023-05-09T18:10:28;96096.97;;;14.41;58.93
32761;BME280;19126;47.472;7.850;2023-05-09T18:12:55;96095.09;;;14.48;56.69
32761;BME280;19126;47.472;7.850;2023-05-09T18:15:23;96101.84;;;14.44;56.65
32761;BME280;19126;47.472;7.850;2023-05-09T18:17:51;96107.31;;;14.43;54.26
32761;BME280;19126;47.472;7.850;2023-05-09T18:20:19;96106.28;;;14.44;53.40
32761;BME280;19126;47.472;7.850;2023-05-09T18:22:48;96110.56;;;14.45;52.22
32761;BME280;19126;47.472;7.850;2023-05-09T18:25:15;96103.22;;;14.47;53.86
32761;BME280;19126;47.472;7.850;2023-05-09T18:27:43;96108.75;;;14.45;56.54
32761;BME280;19126;47.472;7.850;2023-05-09T18:30:11;96104.31;;;14.32;58.50
32761;BME280;19126;47.472;7.850;2023-05-09T18:32:39;96105.81;;;14.21;55.83
32761;BME280;19126;47.472;7.850;2023-05-09T18:35:07;96102.16;;;14.16;54.27
32761;BME280;19126;47.472;7.850;2023-05-09T18:37:35;96101.75;;;14.19;53.53
32761;BME280;19126;47.472;7.850;2023-05-09T18:40:05;96102.97;;;14.16;54.75
32761;BME280;19126;47.472;7.850;2023-05-09T18:42:35;96105.81;;;14.15;54.75
32761;BME280;19126;47.472;7.850;2023-05-09T18:45:03;96111.53;;;14.12;55.49
32761;BME280;19126;47.472;7.850;2023-05-09T18:47:31;96110.13;;;14.09;53.63
32761;BME280;19126;47.472;7.850;2023-05-09T18:49:59;96111.16;;;14.08;51.37
32761;BME280;19126;47.472;7.850;2023-05-09T18:52:27;96118.84;;;14.10;48.44
32761;BME280;19126;47.472;7.850;2023-05-09T18:54:56;96124.13;;;14.10;46.29
32761;BME280;19126;47.472;7.850;2023-05-09T18:57:25;96121.28;;;14.11;44.98
32761;BME280;19126;47.472;7.850;2023-05-09T18:59:53;96123.09;;;14.11;42.05
32761;BME280;19126;47.472;7.850;2023-05-09T19:02:20;96130.00;;;14.18;41.86
32761;BME280;19126;47.472;7.850;2023-05-09T19:04:48;96119.63;;;14.24;42.36
32761;BME280;19126;47.472;7.850;2023-05-09T19:07:16;96122.69;;;14.14;50.04
32761;BME280;19126;47.472;7.850;2023-05-09T19:09:44;96131.06;;;14.04;57.89
32761;BME280;19126;47.472;7.850;2023-05-09T19:12:11;96127.41;;;14.05;62.21
32761;BME280;19126;47.472;7.850;2023-05-09T19:14:42;96136.34;;;14.04;65.93
32761;BME280;19126;47.472;7.850;2023-05-09T19:17:09;96126.81;;;13.96;65.25
32761;BME280;19126;47.472;7.850;2023-05-09T19:19:37;96139.63;;;13.92;64.53
32761;BME280;19126;47.472;7.850;2023-05-09T19:22:04;96127.63;;;13.90;61.26
32761;BME280;19126;47.472;7.850;2023-05-09T19:24:31;96140.66;;;13.91;58.48
32761;BME280;19126;47.472;7.850;2023-05-09T19:26:59;96130.50;;;13.88;56.15
32761;BME280;19126;47.472;7.850;2023-05-09T19:29:26;96142.09;;;13.87;54.00
32761;BME280;19126;47.472;7.850;2023-05-09T19:31:55;96146.53;;;13.87;53.25
32761;BME280;19126;47.472;7.850;2023-05-09T19:34:22;96153.84;;;13.85;51.94
32761;BME280;19126;47.472;7.850;2023-05-09T19:36:50;96152.03;;;13.85;51.64
32761;BME280;19126;47.472;7.850;2023-05-09T19:39:17;96146.94;;;13.84;50.98
32761;BME280;19126;47.472;7.850;2023-05-09T19:41:45;96154.47;;;13.87;51.39
32761;BME280;19126;47.472;7.850;2023-05-09T19:44:12;96156.06;;;13.88;51.37
32761;BME280;19126;47.472;7.850;2023-05-09T19:46:39;96159.53;;;13.88;49.59
32761;BME280;19126;47.472;7.850;2023-05-09T19:49:10;96173.34;;;13.90;48.94